createdAt,value
2023-05-22T00:00:23.683Z,100983.48
2023-05-22T00:01:24.190Z,100979
2023-05-22T00:02:24.137Z,100978.52
2023-05-22T00:03:24.565Z,100976.36
2023-05-22T00:04:24.737Z,100977.2
2023-05-22T00:05:25.189Z,100979.27
2023-05-22T00:06:25.476Z,100976.7
2023-05-22T00:07:25.981Z,100978.94
2023-05-22T00:08:29.441Z,100980.94
2023-05-22T00:09:27.638Z,100985.98
2023-05-22T00:10:27.838Z,100980.2
2023-05-22T00:11:28.171Z,100978.44
2023-05-22T00:12:28.658Z,100976.3
2023-05-22T00:13:29.099Z,100975.7
2023-05-22T00:14:29.372Z,100969.83
2023-05-22T00:15:29.699Z,100973.3
2023-05-22T00:16:30.198Z,100970.97
2023-05-22T00:17:30.794Z,100970.49
2023-05-22T00:18:30.972Z,100967.83
2023-05-22T00:19:31.334Z,100969.26
2023-05-22T00:20:31.602Z,100970.02
2023-05-22T00:21:32.114Z,100971.4
2023-05-22T00:22:32.849Z,100968.5
2023-05-22T00:23:32.760Z,100969.09
2023-05-22T00:24:33.062Z,100971.06
2023-05-22T00:25:33.358Z,100971.66
2023-05-22T00:26:34.194Z,100970.66
2023-05-22T00:27:35.034Z,100972.55
2023-05-22T00:28:34.732Z,100970.58
2023-05-22T00:29:35.141Z,100970.23
2023-05-22T00:30:37.197Z,100967.91
2023-05-22T00:31:35.640Z,100966.83
2023-05-22T00:32:36.094Z,100965.59
2023-05-22T00:33:36.807Z,100963.7
2023-05-22T00:34:36.909Z,100961.3
2023-05-22T00:35:37.220Z,100963.7
2023-05-22T00:36:37.761Z,100958.73
2023-05-22T00:37:37.945Z,100962.38
2023-05-22T00:38:38.491Z,100959.9
2023-05-22T00:39:39.102Z,100955.84
2023-05-22T00:40:39.406Z,100958.64
2023-05-22T00:41:39.750Z,100960.54
2023-05-22T00:42:39.851Z,100954.52
2023-05-22T00:43:40.663Z,100957.72
2023-05-22T00:44:40.646Z,100958.71
2023-05-22T00:45:40.968Z,100956.58
2023-05-22T00:46:41.538Z,100957.22
2023-05-22T00:47:42.279Z,100959.31
2023-05-22T00:48:43.055Z,100959.39
2023-05-22T00:49:43.977Z,100955.23
2023-05-22T00:50:42.857Z,100958.16
2023-05-22T00:51:43.584Z,100956.23
2023-05-22T00:52:45.740Z,100951.94
2023-05-22T00:53:45.450Z,100954.58
2023-05-22T00:54:45.552Z,100957.91
2023-05-22T00:55:45.460Z,100955.16
2023-05-22T00:56:45.555Z,100952.83
2023-05-22T00:57:46.098Z,100952.42
2023-05-22T00:58:46.296Z,100954.81
2023-05-22T00:59:46.512Z,100952.34
2023-05-22T01:00:46.905Z,100949.84
2023-05-22T01:01:47.651Z,100954.09
2023-05-22T01:02:47.656Z,100950.17
2023-05-22T01:03:47.976Z,100951.26
2023-05-22T01:04:48.513Z,100950.3
2023-05-22T01:05:48.486Z,100953.61
2023-05-22T01:06:48.982Z,100951.95
2023-05-22T01:07:49.106Z,100952.38
2023-05-22T01:08:49.849Z,100947.23
2023-05-22T01:09:49.944Z,100948.3
2023-05-22T01:31:43.247Z,100964.95
2023-05-22T01:32:44.856Z,100969.99
2023-05-22T01:33:52.015Z,100966.55
2023-05-22T01:34:46.805Z,100969.5
2023-05-22T01:35:51.237Z,100966.61
2023-05-22T01:36:50.940Z,100963.86
2023-05-22T01:37:49.414Z,100958.57
2023-05-22T01:38:50.856Z,100961.12
2023-05-22T01:39:51.977Z,100959.38
2023-05-22T01:40:50.667Z,100954.03
2023-05-22T01:41:51.300Z,100954.48
2023-05-22T01:42:52.009Z,100956.85
2023-05-22T01:43:51.906Z,100957.96
2023-05-22T01:44:51.848Z,100958.98
2023-05-22T01:45:52.135Z,100955.12
2023-05-22T01:46:52.447Z,100953.3
2023-05-22T01:47:52.692Z,100954.22
2023-05-22T01:48:53.171Z,100949.6
2023-05-22T01:49:53.797Z,100945.45
2023-05-22T01:50:57.187Z,100945.78
2023-05-22T01:55:11.540Z,100946.64
2023-05-22T01:56:10.071Z,100944.09
2023-05-22T02:00:21.212Z,100938.96
2023-05-22T02:01:22.042Z,100937.23
2023-05-22T02:02:21.426Z,100939.3
2023-05-22T02:03:23.241Z,100938.52
2023-05-22T02:04:22.631Z,100938.43
2023-05-22T02:05:22.989Z,100935.39
2023-05-22T02:06:21.965Z,100933.9
2023-05-22T02:07:22.901Z,100936.65
2023-05-22T02:08:23.310Z,100935.06
2023-05-22T02:09:26.812Z,100936.54
2023-05-22T02:10:27.623Z,100939.19
2023-05-22T02:11:27.730Z,100936.36
2023-05-22T02:12:25.980Z,100936.52
2023-05-22T02:13:26.213Z,100938.62
2023-05-22T02:14:26.611Z,100938.54
2023-05-22T02:15:26.650Z,100939.49
2023-05-22T02:16:27.048Z,100932.48
2023-05-22T02:17:28.130Z,100934.15
2023-05-22T02:18:28.376Z,100932.2
2023-05-22T02:19:28.742Z,100934.67
2023-05-22T02:20:28.498Z,100936.77
2023-05-22T02:21:28.918Z,100936.42
2023-05-22T02:22:29.332Z,100938.05
2023-05-22T02:23:29.978Z,100935.68
2023-05-22T02:24:32.927Z,100935.12
2023-05-22T02:25:30.272Z,100937.78
2023-05-22T02:26:30.891Z,100934.04
2023-05-22T02:27:31.226Z,100932.05
2023-05-22T02:28:31.528Z,100930.79
2023-05-22T02:29:31.737Z,100929.95
2023-05-22T02:30:32.359Z,100933.03
2023-05-22T02:31:32.527Z,100930.22
2023-05-22T02:32:33.106Z,100933.91
2023-05-22T02:33:33.311Z,100927.62
2023-05-22T02:34:33.688Z,100929.64
2023-05-22T02:35:34.133Z,100931.38
2023-05-22T02:36:34.338Z,100926.2
2023-05-22T02:37:35.588Z,100930.07
2023-05-22T02:38:35.165Z,100928.26
2023-05-22T02:39:35.606Z,100926.36
2023-05-22T02:40:35.811Z,100924.88
2023-05-22T02:41:36.189Z,100924.61
2023-05-22T02:42:36.643Z,100923.38
2023-05-22T02:43:37.048Z,100925.81
2023-05-22T02:44:37.373Z,100922.66
2023-05-22T02:45:37.884Z,100923.19
2023-05-22T02:46:38.124Z,100922.12
2023-05-22T02:47:38.636Z,100922.52
2023-05-22T02:48:38.826Z,100920.25
2023-05-22T02:49:39.650Z,100920.45
2023-05-22T02:50:39.897Z,100917.66
2023-05-22T02:51:39.982Z,100919.06
2023-05-22T02:52:40.385Z,100921.23
2023-05-22T02:53:41.236Z,100921.61
2023-05-22T02:54:41.232Z,100922.37
2023-05-22T02:55:43.992Z,100920.22
2023-05-22T02:56:42.986Z,100920.88
2023-05-22T02:57:42.383Z,100921.31
2023-05-22T02:58:42.505Z,100919.73
2023-05-22T02:59:42.991Z,100917.49
2023-05-22T03:00:43.315Z,100920.16
2023-05-22T03:01:43.764Z,100923.39
2023-05-22T03:02:44.404Z,100922.47
2023-05-22T03:03:44.615Z,100921.8
2023-05-22T03:04:44.862Z,100927.67
2023-05-22T03:05:45.183Z,100924.6
2023-05-22T03:06:45.598Z,100923.36
2023-05-22T03:07:48.412Z,100921.56
2023-05-22T03:08:46.216Z,100925.11
2023-05-22T03:09:46.745Z,100924.36
2023-05-22T03:10:47.181Z,100922.05
2023-05-22T03:11:47.676Z,100920.58
2023-05-22T03:12:47.783Z,100920.97
2023-05-22T03:13:48.160Z,100919.4
2023-05-22T03:14:48.613Z,100917.74
2023-05-22T03:15:48.954Z,100914.02
2023-05-22T03:16:49.563Z,100920.8
2023-05-22T03:17:49.676Z,100918.09
2023-05-22T03:19:55.100Z,100920.56
2023-05-22T03:20:55.338Z,100922.56
2023-05-22T03:21:55.846Z,100922.92
2023-05-22T03:22:56.152Z,100922.02
2023-05-22T03:23:56.576Z,100924.17
2023-05-22T03:24:56.899Z,100923.38
2023-05-22T03:25:57.191Z,100925.17
2023-05-22T03:26:57.522Z,100921.05
2023-05-22T03:27:58.020Z,100925.52
2023-05-22T03:28:58.502Z,100918.86
2023-05-22T03:29:58.651Z,100920.86
2023-05-22T03:30:59.166Z,100918.32
2023-05-22T03:31:59.283Z,100922.3
2023-05-22T03:32:59.853Z,100921.47
2023-05-22T03:34:00.468Z,100920.36
2023-05-22T03:35:00.532Z,100917.39
2023-05-22T03:36:01.059Z,100918.72
2023-05-22T03:37:01.394Z,100919.79
2023-05-22T03:38:01.674Z,100922.87
2023-05-22T03:39:05.164Z,100918.47
2023-05-22T03:40:03.461Z,100922.93
2023-05-22T03:41:03.024Z,100918.72
2023-05-22T03:42:04.270Z,100921.46
2023-05-22T03:43:03.887Z,100918.38
2023-05-22T03:44:04.575Z,100915.5
2023-05-22T03:45:05.371Z,100916.07
2023-05-22T03:46:05.211Z,100916.64
2023-05-22T03:47:05.726Z,100916.95
2023-05-22T03:48:06.279Z,100914.48
2023-05-22T03:49:06.148Z,100914.3
2023-05-22T03:50:07.309Z,100912.15
2023-05-22T03:51:06.986Z,100910.74
2023-05-22T03:52:10.470Z,100911.83
2023-05-22T03:53:07.927Z,100910.5
2023-05-22T03:54:08.433Z,100912.45
2023-05-22T03:55:09.607Z,100909.89
2023-05-22T03:56:09.164Z,100908.34
2023-05-22T03:57:09.484Z,100908.73
2023-05-22T03:58:10.332Z,100910.66
2023-05-22T03:59:10.078Z,100909.73
2023-05-22T04:00:11.765Z,100907.59
2023-05-22T04:01:11.041Z,100910.38
2023-05-22T04:02:11.484Z,100912.19
2023-05-22T04:03:11.792Z,100911.36
2023-05-22T04:04:12.196Z,100906.03
2023-05-22T04:05:12.527Z,100907.22
2023-05-22T04:06:13.024Z,100906.69
2023-05-22T04:07:13.349Z,100903.6
2023-05-22T04:08:13.850Z,100902.36
2023-05-22T04:09:15.809Z,100898.5
2023-05-22T04:10:14.693Z,100900.64
2023-05-22T04:11:14.778Z,100900.09
2023-05-22T04:12:15.427Z,100899.66
2023-05-22T04:13:16.866Z,100897.62
2023-05-22T04:14:16.039Z,100899.71
2023-05-22T04:15:16.552Z,100902.06
2023-05-22T04:16:17.484Z,100903.95
2023-05-22T04:17:17.195Z,100903.2
2023-05-22T04:18:17.609Z,100903.09
2023-05-22T04:19:18.500Z,100905.06
2023-05-22T04:20:18.450Z,100907.56
2023-05-22T04:21:18.858Z,100909.03
2023-05-22T04:22:18.853Z,100911.49
2023-05-22T04:23:19.589Z,100906.73
2023-05-22T04:24:20.005Z,100908.41
2023-05-22T04:25:20.938Z,100905.34
2023-05-22T04:26:20.526Z,100901.88
2023-05-22T04:27:21.050Z,100899.69
2023-05-22T04:28:21.552Z,100899.12
2023-05-22T04:29:21.776Z,100898.25
2023-05-22T04:30:22.188Z,100898.59
2023-05-22T04:31:22.721Z,100897.85
2023-05-22T04:32:23.136Z,100900.47
2023-05-22T04:33:23.842Z,100903.92
2023-05-22T04:34:23.655Z,100901.89
2023-05-22T04:35:24.062Z,100903.17
2023-05-22T04:36:24.481Z,100895.63
2023-05-22T04:37:25.015Z,100895.91
2023-05-22T04:38:25.408Z,100903.13
2023-05-22T04:39:25.737Z,100895.02
2023-05-22T04:40:26.148Z,100899.16
2023-05-22T04:41:26.678Z,100899.03
2023-05-22T04:42:26.988Z,100898.99
2023-05-22T04:43:27.284Z,100905.97
2023-05-22T04:44:27.708Z,100912.34
2023-05-22T04:45:28.330Z,100910.45
2023-05-22T04:46:28.467Z,100908.47
2023-05-22T04:47:29.076Z,100905.54
2023-05-22T04:48:29.284Z,100910.63
2023-05-22T04:49:29.789Z,100908.89
2023-05-22T04:50:30.414Z,100910.14
2023-05-22T04:51:30.528Z,100913.73
2023-05-22T04:52:30.936Z,100917.45
2023-05-22T04:53:31.452Z,100913.02
2023-05-22T04:54:32.085Z,100912.59
2023-05-22T04:55:32.285Z,100912.46
2023-05-22T04:56:36.728Z,100915.97
2023-05-22T04:57:34.883Z,100913.38
2023-05-22T04:58:35.274Z,100913.99
2023-05-22T04:59:36.922Z,100910.61
2023-05-22T05:00:35.942Z,100917.09
2023-05-22T05:01:36.521Z,100913.58
2023-05-22T05:02:36.770Z,100913.48
2023-05-22T05:03:37.288Z,100907.82
2023-05-22T05:04:37.667Z,100908.6
2023-05-22T05:05:38.086Z,100906.58
2023-05-22T05:06:38.515Z,100910.28
2023-05-22T05:07:39.746Z,100907.26
2023-05-22T05:08:39.261Z,100906.14
2023-05-22T05:09:39.749Z,100903.97
2023-05-22T05:10:40.471Z,100903.46
2023-05-22T05:11:40.695Z,100906.98
2023-05-22T05:12:40.896Z,100903.98
2023-05-22T05:13:41.318Z,100907.08
2023-05-22T05:14:41.814Z,100905.34
2023-05-22T05:15:42.158Z,100902.73
2023-05-22T05:16:42.607Z,100907.42
2023-05-22T05:17:42.933Z,100897.32
2023-05-22T05:18:43.522Z,100903.65
2023-05-22T05:19:43.943Z,100901
2023-05-22T05:20:44.250Z,100904.52
2023-05-22T05:21:44.947Z,100903.14
2023-05-22T05:22:45.188Z,100895.22
2023-05-22T05:23:45.490Z,100894.25
2023-05-22T05:24:46.219Z,100895.88
2023-05-22T05:25:46.535Z,100889.98
2023-05-22T05:26:46.827Z,100886.31
2023-05-22T05:27:47.349Z,100891.16
2023-05-22T05:28:47.709Z,100885.43
2023-05-22T05:29:47.972Z,100882.41
2023-05-22T05:30:48.488Z,100880.2
2023-05-22T05:31:48.822Z,100879.64
2023-05-22T05:32:49.395Z,100876.89
2023-05-22T05:33:50.050Z,100875.75
2023-05-22T05:34:50.271Z,100878.41
2023-05-22T05:35:50.693Z,100875.73
2023-05-22T05:36:50.908Z,100878.81
2023-05-22T05:37:51.432Z,100878.22
2023-05-22T05:38:51.907Z,100876.22
2023-05-22T05:39:52.238Z,100883.3
2023-05-22T05:40:52.663Z,100882.66
2023-05-22T05:41:53.077Z,100883.5
2023-05-22T05:42:53.518Z,100885.78
2023-05-22T05:43:53.992Z,100886.11
2023-05-22T05:44:54.326Z,100883.42
2023-05-22T05:45:55.055Z,100889.3
2023-05-22T05:46:55.148Z,100892.19
2023-05-22T05:47:55.685Z,100887.8
2023-05-22T05:48:56.196Z,100894.95
2023-05-22T05:49:56.473Z,100889.58
2023-05-22T05:50:57.335Z,100891.09
2023-05-22T05:51:57.649Z,100891.14
2023-05-22T05:52:57.853Z,100889.41
2023-05-22T05:53:58.581Z,100887.64
2023-05-22T05:54:59.794Z,100886.77
2023-05-22T05:55:59.205Z,100887.62
2023-05-22T05:56:59.730Z,100883.44
2023-05-22T05:58:00.055Z,100887.44
2023-05-22T05:59:01.101Z,100885.94
2023-05-22T06:00:00.894Z,100887.55
2023-05-22T06:01:01.912Z,100885.23
2023-05-22T06:02:02.417Z,100889.43
2023-05-22T06:03:02.934Z,100892.66
2023-05-22T06:04:03.614Z,100892.69
2023-05-22T06:05:04.413Z,100890.58
2023-05-22T06:06:04.457Z,100893.53
2023-05-22T06:07:05.068Z,100890.23
2023-05-22T06:08:05.344Z,100884.8
2023-05-22T06:09:06.920Z,100883.61
2023-05-22T06:10:10.667Z,100880.52
2023-05-22T06:11:08.290Z,100879.61
2023-05-22T06:12:09.016Z,100884.55
2023-05-22T06:13:09.156Z,100882.91
2023-05-22T06:14:09.870Z,100883.72
2023-05-22T06:15:10.084Z,100886.11
2023-05-22T06:16:10.545Z,100882.77
2023-05-22T06:17:10.826Z,100884.17
2023-05-22T06:18:11.378Z,100884.88
2023-05-22T06:19:11.978Z,100883.4
2023-05-22T06:20:12.690Z,100888.81
2023-05-22T06:21:12.605Z,100884.72
2023-05-22T06:22:13.319Z,100885.76
2023-05-22T06:23:13.530Z,100883.66
2023-05-22T06:24:14.030Z,100884.84
2023-05-22T06:25:14.765Z,100879.92
2023-05-22T06:26:14.974Z,100884.3
2023-05-22T06:27:15.175Z,100884.09
2023-05-22T06:28:15.707Z,100883.06
2023-05-22T06:29:16.422Z,100882.78
2023-05-22T06:30:20.331Z,100884.33
2023-05-22T06:31:22.374Z,100888.45
2023-05-22T06:32:21.692Z,100890.17
2023-05-22T06:33:22.035Z,100890.27
2023-05-22T06:34:22.616Z,100891.84
2023-05-22T06:35:23.117Z,100893.52
2023-05-22T06:36:23.343Z,100890.42
2023-05-22T06:37:23.647Z,100885.2
2023-05-22T06:38:24.168Z,100889.05
2023-05-22T06:39:24.689Z,100888.03
2023-05-22T06:40:25.008Z,100886.7
2023-05-22T06:41:25.629Z,100892.88
2023-05-22T06:42:26.040Z,100894.44
2023-05-22T06:43:26.450Z,100892.05
2023-05-22T06:44:26.863Z,100891.55
2023-05-22T06:45:27.486Z,100890.59
2023-05-22T06:46:28.136Z,100887.47
2023-05-22T06:47:28.138Z,100889.66
2023-05-22T06:48:28.862Z,100884.68
2023-05-22T06:49:29.265Z,100884.85
2023-05-22T06:50:30.492Z,100885.42
2023-05-22T06:51:30.816Z,100881.39
2023-05-22T06:52:30.403Z,100882.53
2023-05-22T06:53:30.896Z,100883.38
2023-05-22T06:54:31.648Z,100880.93
2023-05-22T06:55:31.855Z,100881.63
2023-05-22T06:56:32.475Z,100879.11
2023-05-22T06:57:32.894Z,100879.64
2023-05-22T06:58:33.413Z,100878.18
2023-05-22T06:59:33.832Z,100873.76
2023-05-22T07:00:34.050Z,100875.59
2023-05-22T07:01:34.819Z,100874.34
2023-05-22T07:02:35.110Z,100871.78
2023-05-22T07:03:35.695Z,100872.97
2023-05-22T07:04:36.013Z,100875.09
2023-05-22T07:05:36.450Z,100875.34
2023-05-22T07:06:37.057Z,100869.01
2023-05-22T07:07:37.370Z,100871.59
2023-05-22T07:08:37.972Z,100868.22
2023-05-22T07:09:38.396Z,100871.43
2023-05-22T07:10:38.975Z,100873.27
2023-05-22T07:11:39.333Z,100869.86
2023-05-22T07:12:39.751Z,100867.53
2023-05-22T07:13:40.264Z,100874.02
2023-05-22T07:14:40.691Z,100868.02
2023-05-22T07:15:41.108Z,100871.78
2023-05-22T07:16:41.863Z,100873.11
2023-05-22T07:17:42.055Z,100872.48
2023-05-22T07:18:42.556Z,100875.45
2023-05-22T07:19:42.872Z,100874.95
2023-05-22T07:20:43.501Z,100873.86
2023-05-22T07:21:43.703Z,100873.69
2023-05-22T07:22:44.236Z,100876.05
2023-05-22T07:23:44.842Z,100871.81
2023-05-22T07:24:45.281Z,100876.78
2023-05-22T07:25:45.671Z,100879.12
2023-05-22T07:26:46.206Z,100883.47
2023-05-22T07:27:46.601Z,100882.52
2023-05-22T07:28:48.041Z,100885.55
2023-05-22T07:29:47.547Z,100885.42
2023-05-22T07:30:47.958Z,100886.81
2023-05-22T07:31:48.528Z,100886.78
2023-05-22T07:32:49.019Z,100881.98
2023-05-22T07:33:49.324Z,100883.89
2023-05-22T07:34:49.932Z,100877.34
2023-05-22T07:35:50.554Z,100873.45
2023-05-22T07:36:50.638Z,100875.56
2023-05-22T07:37:51.295Z,100867.72
2023-05-22T07:38:51.576Z,100869.75
2023-05-22T07:39:52.079Z,100871.87
2023-05-22T07:40:52.525Z,100868.54
2023-05-22T07:41:54.518Z,100866.58
2023-05-22T07:42:53.624Z,100866.94
2023-05-22T07:43:53.882Z,100865.23
2023-05-22T07:44:54.516Z,100865.09
2023-05-22T07:45:54.764Z,100858.78
2023-05-22T07:46:55.230Z,100861.73
2023-05-22T07:47:56.461Z,100859.49
2023-05-22T07:48:55.958Z,100860.86
2023-05-22T07:49:56.276Z,100856.36
2023-05-22T07:50:56.612Z,100857.34
2023-05-22T07:51:57.548Z,100860.83
2023-05-22T07:52:57.416Z,100862.94
2023-05-22T07:54:58.455Z,100856.8
2023-05-22T07:55:58.558Z,100856.37
2023-05-22T07:56:58.984Z,100855.53
2023-05-22T07:57:59.399Z,100855.58
2023-05-22T07:58:59.585Z,100850.42
2023-05-22T08:00:00.352Z,100850.95
2023-05-22T08:01:00.441Z,100849.27
2023-05-22T08:02:01.451Z,100848.89
2023-05-22T08:03:01.232Z,100847.19
2023-05-22T08:04:01.866Z,100848.92
2023-05-22T08:05:02.426Z,100851.11
2023-05-22T08:06:03.462Z,100846.53
2023-05-22T08:07:02.853Z,100845.84
2023-05-22T08:08:03.347Z,100845.45
2023-05-22T08:09:03.875Z,100843.84
2023-05-22T08:10:08.173Z,100845.9
2023-05-22T08:11:05.886Z,100841.7
2023-05-22T08:12:08.031Z,100843.7
2023-05-22T08:13:07.070Z,100845.32
2023-05-22T08:14:07.718Z,100844.41
2023-05-22T08:15:08.837Z,100847.2
2023-05-22T08:16:08.318Z,100844.73
2023-05-22T08:17:08.654Z,100846.77
2023-05-22T08:18:09.183Z,100844.59
2023-05-22T08:19:09.427Z,100847.77
2023-05-22T08:20:10.621Z,100843.15
2023-05-22T08:21:10.404Z,100841.73
2023-05-22T08:22:10.425Z,100842.19
2023-05-22T08:23:10.822Z,100842.84
2023-05-22T08:24:11.347Z,100841.73
2023-05-22T08:25:11.768Z,100841.91
2023-05-22T08:26:11.966Z,100841.78
2023-05-22T08:27:12.592Z,100843.72
2023-05-22T08:28:12.822Z,100845.09
2023-05-22T08:29:13.294Z,100841.53
2023-05-22T08:30:14.046Z,100844.49
2023-05-22T08:31:14.811Z,100842.38
2023-05-22T08:32:14.368Z,100836.63
2023-05-22T08:33:14.829Z,100837.44
2023-05-22T08:34:15.202Z,100837.55
2023-05-22T08:35:16.122Z,100835.16
2023-05-22T08:36:15.993Z,100831.17
2023-05-22T08:37:16.325Z,100829.34
2023-05-22T08:38:16.696Z,100832.65
2023-05-22T08:39:16.970Z,100831
2023-05-22T08:40:20.569Z,100830.81
2023-05-22T08:41:18.616Z,100831.87
2023-05-22T08:42:18.315Z,100831.86
2023-05-22T08:43:20.611Z,100827.75
2023-05-22T08:44:19.360Z,100829.98
2023-05-22T08:45:19.673Z,100823.73
2023-05-22T08:46:21.558Z,100823.95
2023-05-22T08:47:20.681Z,100824.91
2023-05-22T08:48:23.530Z,100826.23
2023-05-22T08:49:24.184Z,100824.7
2023-05-22T08:50:24.313Z,100820.73
2023-05-22T08:51:27.181Z,100822.05
2023-05-22T08:53:28.536Z,100819.55
2023-05-22T08:54:27.410Z,100821.64
2023-05-22T08:55:26.710Z,100819.01
2023-05-22T08:56:29.457Z,100818.68
2023-05-22T08:57:27.335Z,100817.84
2023-05-22T08:58:28.459Z,100817.48
2023-05-22T08:59:28.878Z,100816.09
2023-05-22T09:00:28.412Z,100814.75
2023-05-22T09:01:30.282Z,100813.5
2023-05-22T09:02:29.307Z,100812.71
2023-05-22T09:03:30.615Z,100815.72
2023-05-22T09:04:30.083Z,100812.1
2023-05-22T09:05:30.353Z,100810.83
2023-05-22T09:06:30.869Z,100809.8
2023-05-22T09:07:31.083Z,100805.81
2023-05-22T09:08:31.502Z,100805.27
2023-05-22T09:10:33.175Z,100802.99
2023-05-22T09:11:33.366Z,100799.73
2023-05-22T09:12:33.889Z,100802.33
2023-05-22T09:13:34.302Z,100799.62
2023-05-22T09:15:38.421Z,100795.64
2023-05-22T09:17:40.731Z,100795.42
2023-05-22T09:18:41.395Z,100794.91
2023-05-22T09:19:44.487Z,100796.16
2023-05-22T09:20:42.295Z,100795.19
2023-05-22T09:21:43.311Z,100794.62
2023-05-22T09:22:42.856Z,100793.55
2023-05-22T09:23:43.081Z,100791.42
2023-05-22T09:24:45.108Z,100788.87
2023-05-22T09:25:44.625Z,100793.08
2023-05-22T09:26:44.218Z,100791.69
2023-05-22T09:27:50.782Z,100784.58
2023-05-22T09:28:48.447Z,100786.16
2023-05-22T09:29:51.216Z,100783.19
2023-05-22T09:30:50.237Z,100782.75
2023-05-22T09:31:49.524Z,100783.16
2023-05-22T09:32:50.061Z,100777.3
2023-05-22T09:33:50.209Z,100777.53
2023-05-22T09:34:51.046Z,100775.34
2023-05-22T09:35:52.779Z,100779.98
2023-05-22T09:36:53.702Z,100775.52
2023-05-22T09:37:52.283Z,100771.22
2023-05-22T09:38:54.531Z,100772.33
2023-05-22T09:39:52.630Z,100766.52
2023-05-22T09:40:54.494Z,100766.47
2023-05-22T09:41:53.328Z,100771.05
2023-05-22T09:42:53.658Z,100767.28
2023-05-22T09:43:54.166Z,100767.49
2023-05-22T09:44:54.889Z,100765.42
2023-05-22T09:46:00.687Z,100762.48
2023-05-22T09:46:58.168Z,100760.42
2023-05-22T09:47:58.617Z,100756.79
2023-05-22T09:49:01.873Z,100756.8
2023-05-22T09:49:59.527Z,100753.23
2023-05-22T09:51:00.666Z,100756.5
2023-05-22T09:52:01.183Z,100748.25
2023-05-22T09:53:05.127Z,100744.75
2023-05-22T09:54:06.463Z,100750.41
2023-05-22T09:55:06.736Z,100745.91
2023-05-22T09:56:11.952Z,100741.25
2023-05-22T09:57:13.909Z,100743.44
2023-05-22T09:58:16.472Z,100744.5
2023-05-22T09:59:16.484Z,100735.95
2023-05-22T10:00:15.994Z,100740.25
2023-05-22T10:01:15.204Z,100737.48
2023-05-22T10:02:15.786Z,100738.59
2023-05-22T10:03:17.026Z,100736.61
2023-05-22T10:04:18.842Z,100732.69
2023-05-22T10:05:17.232Z,100731.75
2023-05-22T10:06:18.474Z,100734.41
2023-05-22T10:07:22.986Z,100733.33
2023-05-22T10:08:28.744Z,100731.14
2023-05-22T10:09:24.577Z,100727.28
2023-05-22T10:10:24.763Z,100721.62
2023-05-22T10:11:23.657Z,100724.64
2023-05-22T10:12:25.177Z,100723.97
2023-05-22T10:13:25.281Z,100726.92
2023-05-22T10:14:24.788Z,100722.09
2023-05-22T10:15:24.885Z,100718.06
2023-05-22T10:16:25.761Z,100722.67
2023-05-22T10:17:26.148Z,100720.17
2023-05-22T10:18:26.761Z,100717.27
2023-05-22T10:19:26.093Z,100717.12
2023-05-22T10:20:27.065Z,100718.16
2023-05-22T10:21:28.111Z,100714.52
2023-05-22T10:22:29.344Z,100715.02
2023-05-22T10:23:29.851Z,100712.92
2023-05-22T10:24:28.932Z,100713.94
2023-05-22T10:25:27.935Z,100710.99
2023-05-22T10:26:29.356Z,100707.59
2023-05-22T10:27:28.879Z,100706.21
2023-05-22T10:28:38.612Z,100706.34
2023-05-22T10:29:45.060Z,100704.27
2023-05-22T10:35:50.725Z,100696.7
2023-05-22T10:37:55.068Z,100691.68
2023-05-22T10:40:56.483Z,100692.94
2023-05-22T10:41:55.884Z,100691.45
2023-05-22T10:43:57.957Z,100691.02
2023-05-22T10:44:59.184Z,100687.67
2023-05-22T10:49:08.629Z,100675.19
2023-05-22T10:50:10.894Z,100678.48
2023-05-22T10:51:09.274Z,100675.84
2023-05-22T10:52:10.305Z,100676.08
2023-05-22T10:54:13.377Z,100674.02
2023-05-22T10:55:14.056Z,100669.67
2023-05-22T10:56:16.449Z,100669.89
2023-05-22T10:57:16.679Z,100666.98
2023-05-22T10:58:15.654Z,100668.13
2023-05-22T10:59:15.355Z,100661.33
2023-05-22T11:00:16.693Z,100669.62
2023-05-22T11:01:20.507Z,100664.45
2023-05-22T11:02:30.034Z,100659.12
2023-05-22T11:03:22.826Z,100662.95
2023-05-22T11:04:25.658Z,100662.91
2023-05-22T11:07:25.825Z,100660.86
2023-05-22T11:11:34.995Z,100664.19
2023-05-22T11:12:35.620Z,100667.16
2023-05-22T11:13:36.030Z,100665.42
2023-05-22T11:14:37.136Z,100665.35
2023-05-22T11:15:36.762Z,100666.36
2023-05-22T11:16:38.759Z,100664.33
2023-05-22T11:17:47.537Z,100665.52
2023-05-22T11:18:39.956Z,100669.78
2023-05-22T11:19:41.358Z,100672.2
2023-05-22T11:20:41.334Z,100672.45
2023-05-22T11:21:45.908Z,100675.61
2023-05-22T11:22:46.637Z,100673.84
2023-05-22T11:23:45.508Z,100673.23
2023-05-22T11:24:45.100Z,100676.01
2023-05-22T11:25:44.924Z,100678.63
2023-05-22T11:27:49.460Z,100688.06
2023-05-22T11:28:50.278Z,100689.91
2023-05-22T11:29:49.344Z,100692.52
2023-05-22T11:30:50.819Z,100689
2023-05-22T11:31:50.282Z,100690.86
2023-05-22T11:32:50.324Z,100693.18
2023-05-22T11:33:51.009Z,100694.94
2023-05-22T11:34:51.321Z,100696.36
2023-05-22T11:35:54.001Z,100701.22
2023-05-22T11:36:59.098Z,100701.22
2023-05-22T11:37:56.689Z,100704.52
2023-05-22T11:39:00.178Z,100708.75
2023-05-22T11:39:58.835Z,100708.28
2023-05-22T11:40:58.644Z,100711.56
2023-05-22T11:41:58.655Z,100714.73
2023-05-22T11:42:59.106Z,100718.99
2023-05-22T11:44:00.407Z,100719.33
2023-05-22T11:45:00.650Z,100723.12
2023-05-22T11:46:07.805Z,100724.05
2023-05-22T11:47:00.204Z,100721.38
2023-05-22T11:48:00.871Z,100718.52
2023-05-22T11:49:01.451Z,100717.59
2023-05-22T11:50:01.868Z,100717.92
2023-05-22T11:51:04.947Z,100720.07
2023-05-22T11:52:02.708Z,100720
2023-05-22T11:53:03.218Z,100723.53
2023-05-22T11:54:05.273Z,100725.09
2023-05-22T11:55:07.946Z,100722.96
2023-05-22T11:56:06.104Z,100722.4
2023-05-22T11:57:08.196Z,100723.53
2023-05-22T11:58:06.203Z,100723
2023-05-22T11:59:06.852Z,100722.15
2023-05-22T12:00:09.041Z,100721.69
2023-05-22T12:01:07.575Z,100719.91
2023-05-22T12:02:07.982Z,100718.3
2023-05-22T12:03:08.573Z,100721.3
2023-05-22T12:04:09.123Z,100716.95
2023-05-22T12:05:10.051Z,100721.98
2023-05-22T12:06:09.934Z,100718.49
2023-05-22T12:07:10.506Z,100719.22
2023-05-22T12:08:10.690Z,100716.09
2023-05-22T12:09:11.835Z,100710.21
2023-05-22T12:10:13.844Z,100701.3
2023-05-22T12:11:12.535Z,100696.91
2023-05-22T12:12:13.075Z,100692.98
2023-05-22T12:13:13.592Z,100686.85
2023-05-22T12:14:14.622Z,100682.66
2023-05-22T12:15:14.534Z,100683.2
2023-05-22T12:17:18.513Z,100683.65
2023-05-22T12:18:19.148Z,100681.97
2023-05-22T12:19:19.310Z,100681.09
2023-05-22T12:20:20.000Z,100677.59
2023-05-22T12:21:22.752Z,100676.56
2023-05-22T12:22:22.558Z,100671.57
2023-05-22T12:24:25.324Z,100672.42
2023-05-22T12:26:25.450Z,100675.47
2023-05-22T12:27:32.412Z,100681.36
2023-05-22T12:28:33.350Z,100680.12